UAL481 KLAX-KSLC
Flight info
| Callsign | UAL481 |
|---|---|
| Flight time | N/A |
| Altitude | 41000 |
| Route | ORCKA5 LAS Q70 BLIPP Q842 WINEN MLF QWENN6 |
| Aircraft | B789/H-SDE1E2E3FGHIJ2J3J4J5M1RWXY/LB1D1 |
Departure
| Time | 2026-04-20 23:27 |
|---|---|
| Airport | Los Angeles International Airport (KLAX) |
Arrival
| Time | N/A |
|---|---|
| Airport | Salt Lake City International Airport (KSLC) |
| Time | Latitude | Longitude | Altitude | Speed | Heading |
|---|---|---|---|---|---|
| 2026-04-20 23:09 | 33.94187 | -118.40139 | 100 ft | 0 kts | 262° |
| 2026-04-20 23:18 | 33.94188 | -118.40132 | 100 ft | 2 kts | 256° |
| 2026-04-20 23:18 | 33.94193 | -118.40114 | 99 ft | 2 kts | 242° |
| 2026-04-20 23:18 | 33.94204 | -118.40098 | 99 ft | 2 kts | 209° |
| 2026-04-20 23:18 | 33.94220 | -118.40093 | 98 ft | 2 kts | 182° |
| 2026-04-20 23:19 | 33.94230 | -118.40093 | 98 ft | 1 kts | 176° |
| 2026-04-20 23:21 | 33.94206 | -118.40092 | 99 ft | 7 kts | 175° |
| 2026-04-20 23:21 | 33.94139 | -118.40083 | 101 ft | 13 kts | 173° |
| 2026-04-20 23:21 | 33.94033 | -118.40067 | 102 ft | 17 kts | 173° |
| 2026-04-20 23:21 | 33.93920 | -118.40041 | 106 ft | 14 kts | 145° |
| 2026-04-20 23:22 | 33.93886 | -118.39940 | 109 ft | 15 kts | 90° |
| 2026-04-20 23:22 | 33.93899 | -118.39790 | 109 ft | 21 kts | 83° |
| 2026-04-20 23:22 | 33.93918 | -118.39595 | 108 ft | 26 kts | 84° |
| 2026-04-20 23:22 | 33.93937 | -118.39378 | 107 ft | 27 kts | 85° |
| 2026-04-20 23:23 | 33.93964 | -118.39181 | 106 ft | 22 kts | 85° |
| 2026-04-20 23:23 | 33.93980 | -118.39001 | 107 ft | 22 kts | 83° |
| 2026-04-20 23:23 | 33.93996 | -118.38848 | 107 ft | 12 kts | 81° |
| 2026-04-20 23:23 | 33.94005 | -118.38756 | 107 ft | 11 kts | 85° |
| 2026-04-20 23:24 | 33.94013 | -118.38674 | 108 ft | 9 kts | 82° |
| 2026-04-20 23:24 | 33.94024 | -118.38570 | 108 ft | 16 kts | 83° |
| 2026-04-20 23:24 | 33.94041 | -118.38403 | 107 ft | 24 kts | 83° |
| 2026-04-20 23:24 | 33.94061 | -118.38190 | 109 ft | 29 kts | 84° |
| 2026-04-20 23:25 | 33.94073 | -118.38041 | 108 ft | 3 kts | 104° |
| 2026-04-20 23:25 | 33.94068 | -118.38033 | 107 ft | 2 kts | 127° |
| 2026-04-20 23:25 | 33.93991 | -118.38040 | 111 ft | 8 kts | 246° |
| 2026-04-20 23:25 | 33.93982 | -118.38074 | 112 ft | 0 kts | 258° |
| 2026-04-20 23:26 | 33.93970 | -118.38168 | 114 ft | 32 kts | 263° |
| 2026-04-20 23:26 | 33.93919 | -118.38668 | 114 ft | 87 kts | 263° |
| 2026-04-20 23:26 | 33.93824 | -118.39592 | 110 ft | 134 kts | 263° |
| 2026-04-20 23:27 | 33.93705 | -118.40853 | 248 ft | 163 kts | 265° |
| 2026-04-20 23:27 | 33.93559 | -118.42204 | 988 ft | 160 kts | 260° |
| 2026-04-20 23:27 | 33.93410 | -118.43590 | 1530 ft | 181 kts | 262° |
| 2026-04-20 23:27 | 33.93251 | -118.45249 | 1818 ft | 215 kts | 262° |
| 2026-04-20 23:28 | 33.93062 | -118.47149 | 2168 ft | 243 kts | 263° |
| 2026-04-20 23:28 | 33.92850 | -118.49225 | 2927 ft | 251 kts | 262° |
| 2026-04-20 23:28 | 33.92638 | -118.51349 | 3708 ft | 260 kts | 262° |
| 2026-04-20 23:28 | 33.92428 | -118.53519 | 4612 ft | 263 kts | 262° |
| 2026-04-20 23:29 | 33.92215 | -118.55781 | 4999 ft | 279 kts | 260° |
| 2026-04-20 23:29 | 33.91465 | -118.57858 | 5051 ft | 273 kts | 223° |
| 2026-04-20 23:29 | 33.89844 | -118.58790 | 6181 ft | 255 kts | 188° |
| 2026-04-20 23:29 | 33.88059 | -118.58807 | 6907 ft | 265 kts | 170° |
| 2026-04-20 23:30 | 33.86305 | -118.57989 | 7018 ft | 275 kts | 147° |
| 2026-04-20 23:30 | 33.84972 | -118.56368 | 7029 ft | 277 kts | 122° |
| 2026-04-20 23:30 | 33.84344 | -118.54178 | 7809 ft | 278 kts | 99° |
| 2026-04-20 23:30 | 33.84575 | -118.51837 | 8576 ft | 290 kts | 71° |
| 2026-04-20 23:31 | 33.85735 | -118.49827 | 9347 ft | 300 kts | 41° |
| 2026-04-20 23:31 | 33.87442 | -118.48343 | 10044 ft | 307 kts | 35° |
| 2026-04-20 23:31 | 33.89292 | -118.46905 | 10340 ft | 328 kts | 34° |
| 2026-04-20 23:31 | 33.91247 | -118.45329 | 10427 ft | 354 kts | 36° |
| 2026-04-20 23:32 | 33.93177 | -118.43422 | 10885 ft | 362 kts | 51° |
| 2026-04-20 23:32 | 33.94678 | -118.40929 | 11028 ft | 371 kts | 58° |
| 2026-04-20 23:32 | 33.96099 | -118.38359 | 11117 ft | 368 kts | 59° |
| 2026-04-20 23:32 | 33.97508 | -118.35817 | 11957 ft | 365 kts | 58° |
| 2026-04-20 23:33 | 33.98957 | -118.33277 | 12572 ft | 371 kts | 57° |
| 2026-04-20 23:33 | 34.00430 | -118.30705 | 13211 ft | 377 kts | 57° |
| 2026-04-20 23:33 | 34.01924 | -118.28065 | 13839 ft | 382 kts | 57° |
| 2026-04-20 23:33 | 34.03431 | -118.25396 | 14409 ft | 387 kts | 57° |
| 2026-04-20 23:34 | 34.04957 | -118.22704 | 14953 ft | 392 kts | 57° |
| 2026-04-20 23:34 | 34.06506 | -118.19977 | 15524 ft | 396 kts | 57° |
| 2026-04-20 23:34 | 34.08068 | -118.17215 | 16067 ft | 401 kts | 57° |
| 2026-04-20 23:34 | 34.09645 | -118.14424 | 16616 ft | 405 kts | 57° |
| 2026-04-20 23:35 | 34.11240 | -118.11600 | 17146 ft | 410 kts | 57° |
| 2026-04-20 23:35 | 34.14466 | -118.05884 | 18200 ft | 418 kts | 57° |
| 2026-04-20 23:35 | 34.16111 | -118.02963 | 18693 ft | 422 kts | 58° |
| 2026-04-20 23:36 | 34.17764 | -118.00028 | 19203 ft | 424 kts | 58° |
| 2026-04-20 23:36 | 34.19425 | -117.97075 | 19713 ft | 426 kts | 58° |
| 2026-04-20 23:36 | 34.21094 | -117.94106 | 20202 ft | 429 kts | 58° |
| 2026-04-20 23:36 | 34.22773 | -117.91115 | 20704 ft | 431 kts | 58° |
| 2026-04-20 23:37 | 34.24464 | -117.88101 | 21097 ft | 435 kts | 58° |
| 2026-04-20 23:37 | 34.26158 | -117.85081 | 21623 ft | 435 kts | 58° |
| 2026-04-20 23:37 | 34.27864 | -117.82036 | 22079 ft | 438 kts | 58° |
| 2026-04-20 23:37 | 34.29577 | -117.78975 | 22514 ft | 440 kts | 58° |
| 2026-04-20 23:38 | 34.31297 | -117.75899 | 22957 ft | 442 kts | 58° |
| 2026-04-20 23:38 | 34.33019 | -117.72818 | 23350 ft | 445 kts | 58° |
| 2026-04-20 23:38 | 34.34760 | -117.69702 | 23768 ft | 445 kts | 58° |
| 2026-04-20 23:38 | 34.36593 | -117.66669 | 23971 ft | 449 kts | 55° |
| 2026-04-20 23:39 | 34.38412 | -117.63599 | 24319 ft | 450 kts | 57° |
| 2026-04-20 23:39 | 34.39610 | -117.61550 | 24490 ft | 451 kts | 56° |
| 2026-04-20 23:39 | 34.42053 | -117.57447 | 24893 ft | 454 kts | 56° |
| 2026-04-20 23:39 | 34.43920 | -117.54349 | 25183 ft | 456 kts | 56° |
| 2026-04-20 23:40 | 34.45776 | -117.51235 | 25493 ft | 458 kts | 56° |
| 2026-04-20 23:40 | 34.47637 | -117.48093 | 25807 ft | 459 kts | 56° |
| 2026-04-20 23:40 | 34.48899 | -117.45966 | 26001 ft | 460 kts | 56° |
| 2026-04-20 23:40 | 34.50778 | -117.42811 | 26298 ft | 462 kts | 56° |
| 2026-04-20 23:41 | 34.52640 | -117.39682 | 26588 ft | 464 kts | 56° |
| 2026-04-20 23:41 | 34.54526 | -117.36500 | 26898 ft | 466 kts | 56° |
| 2026-04-20 23:41 | 34.56420 | -117.33301 | 27205 ft | 468 kts | 56° |
| 2026-04-20 23:41 | 34.58326 | -117.30085 | 27507 ft | 470 kts | 56° |
| 2026-04-20 23:42 | 34.60237 | -117.26856 | 27808 ft | 472 kts | 56° |
| 2026-04-20 23:42 | 34.62153 | -117.23615 | 28098 ft | 474 kts | 56° |
| 2026-04-20 23:42 | 34.64080 | -117.20352 | 28380 ft | 476 kts | 56° |
| 2026-04-20 23:42 | 34.66014 | -117.17074 | 28676 ft | 478 kts | 56° |
| 2026-04-20 23:43 | 34.67953 | -117.13786 | 28951 ft | 480 kts | 56° |
| 2026-04-20 23:43 | 34.69903 | -117.10475 | 29237 ft | 483 kts | 56° |
| 2026-04-20 23:43 | 34.71861 | -117.07148 | 29497 ft | 485 kts | 56° |
| 2026-04-20 23:43 | 34.73831 | -117.03797 | 29810 ft | 486 kts | 56° |
| 2026-04-20 23:44 | 34.75798 | -117.00448 | 30120 ft | 488 kts | 56° |
| 2026-04-20 23:44 | 34.77752 | -116.97117 | 30372 ft | 490 kts | 56° |
| 2026-04-20 23:44 | 34.79734 | -116.93737 | 30616 ft | 492 kts | 56° |
| 2026-04-20 23:44 | 34.81725 | -116.90338 | 30862 ft | 494 kts | 56° |
| 2026-04-20 23:45 | 34.83731 | -116.86910 | 31095 ft | 496 kts | 56° |
| 2026-04-20 23:45 | 34.85736 | -116.83480 | 31332 ft | 498 kts | 56° |
| 2026-04-20 23:45 | 34.87745 | -116.80040 | 31574 ft | 500 kts | 56° |
| 2026-04-20 23:45 | 34.89765 | -116.76577 | 31806 ft | 502 kts | 56° |
| 2026-04-20 23:46 | 34.91804 | -116.73116 | 32051 ft | 504 kts | 52° |
| 2026-04-20 23:46 | 34.94141 | -116.69912 | 32224 ft | 507 kts | 48° |
| 2026-04-20 23:46 | 34.96526 | -116.66799 | 32468 ft | 509 kts | 48° |
| 2026-04-20 23:46 | 34.98951 | -116.63634 | 32691 ft | 511 kts | 48° |
| 2026-04-20 23:47 | 35.01370 | -116.60439 | 32920 ft | 513 kts | 49° |
| 2026-04-20 23:47 | 35.03792 | -116.57227 | 33155 ft | 514 kts | 48° |
| 2026-04-20 23:47 | 35.06198 | -116.54055 | 33386 ft | 516 kts | 48° |
| 2026-04-20 23:47 | 35.08643 | -116.50837 | 33608 ft | 518 kts | 48° |
| 2026-04-20 23:48 | 35.11097 | -116.47592 | 33830 ft | 520 kts | 49° |
| 2026-04-20 23:48 | 35.13553 | -116.44335 | 34033 ft | 521 kts | 49° |
| 2026-04-20 23:48 | 35.16010 | -116.41079 | 34265 ft | 521 kts | 49° |
| 2026-04-20 23:48 | 35.18471 | -116.37819 | 34532 ft | 520 kts | 49° |
| 2026-04-20 23:49 | 35.20920 | -116.34570 | 34819 ft | 519 kts | 49° |
| 2026-04-20 23:49 | 35.23362 | -116.31323 | 35078 ft | 518 kts | 49° |
| 2026-04-20 23:49 | 35.25776 | -116.28112 | 35336 ft | 517 kts | 49° |
| 2026-04-20 23:49 | 35.28213 | -116.24869 | 35597 ft | 516 kts | 49° |
| 2026-04-20 23:50 | 35.30639 | -116.21637 | 35848 ft | 516 kts | 49° |
| 2026-04-20 23:50 | 35.33063 | -116.18403 | 36087 ft | 515 kts | 49° |
| 2026-04-20 23:50 | 35.35485 | -116.15171 | 36356 ft | 514 kts | 49° |
| 2026-04-20 23:50 | 35.37898 | -116.11946 | 36600 ft | 513 kts | 49° |
| 2026-04-20 23:51 | 35.40306 | -116.08726 | 36849 ft | 512 kts | 49° |
| 2026-04-20 23:51 | 35.42710 | -116.05507 | 37105 ft | 511 kts | 49° |
| 2026-04-20 23:51 | 35.45108 | -116.02293 | 37343 ft | 510 kts | 50° |
| 2026-04-20 23:51 | 35.47503 | -115.99081 | 37586 ft | 509 kts | 50° |
| 2026-04-20 23:52 | 35.49889 | -115.95878 | 37826 ft | 508 kts | 50° |
| 2026-04-20 23:52 | 35.52270 | -115.92678 | 38096 ft | 507 kts | 50° |
| 2026-04-20 23:52 | 35.54644 | -115.89485 | 38321 ft | 506 kts | 50° |
| 2026-04-20 23:52 | 35.57012 | -115.86296 | 38555 ft | 505 kts | 50° |
| 2026-04-20 23:53 | 35.59380 | -115.83105 | 38734 ft | 504 kts | 50° |
| 2026-04-20 23:53 | 35.61712 | -115.79959 | 38867 ft | 504 kts | 50° |
| 2026-04-20 23:53 | 35.64073 | -115.76770 | 39000 ft | 504 kts | 50° |
| 2026-04-20 23:53 | 35.66450 | -115.73514 | 39149 ft | 505 kts | 50° |
| 2026-04-20 23:54 | 35.68752 | -115.70322 | 39262 ft | 505 kts | 50° |
| 2026-04-20 23:54 | 35.71093 | -115.67092 | 39396 ft | 506 kts | 50° |
| 2026-04-20 23:54 | 35.73450 | -115.63865 | 39505 ft | 506 kts | 50° |
| 2026-04-20 23:54 | 35.75800 | -115.60634 | 39639 ft | 506 kts | 50° |
| 2026-04-20 23:55 | 35.78146 | -115.57390 | 39754 ft | 506 kts | 50° |
| 2026-04-20 23:55 | 35.80492 | -115.54146 | 39886 ft | 507 kts | 50° |
| 2026-04-20 23:55 | 35.82845 | -115.50898 | 39989 ft | 507 kts | 50° |
| 2026-04-20 23:55 | 35.85193 | -115.47654 | 40109 ft | 508 kts | 50° |
| 2026-04-20 23:56 | 35.87543 | -115.44399 | 40239 ft | 508 kts | 50° |
| 2026-04-20 23:56 | 35.89891 | -115.41143 | 40348 ft | 508 kts | 50° |
| 2026-04-20 23:56 | 35.92242 | -115.37882 | 40476 ft | 509 kts | 50° |
| 2026-04-20 23:57 | 35.96925 | -115.31378 | 40682 ft | 510 kts | 49° |
| 2026-04-20 23:57 | 35.99284 | -115.28095 | 40799 ft | 510 kts | 49° |
| 2026-04-20 23:57 | 36.01641 | -115.24813 | 40913 ft | 510 kts | 49° |
| 2026-04-20 23:58 | 36.06359 | -115.18235 | 40925 ft | 513 kts | 49° |
| 2026-04-20 23:58 | 36.11498 | -115.12173 | 40935 ft | 510 kts | 41° |
| 2026-04-20 23:59 | 36.16824 | -115.06474 | 40879 ft | 509 kts | 41° |
| 2026-04-20 23:59 | 36.22151 | -115.00711 | 40872 ft | 507 kts | 41° |
| 2026-04-21 00:00 | 36.27468 | -114.94980 | 40871 ft | 506 kts | 41° |
| 2026-04-21 00:00 | 36.32779 | -114.89227 | 40861 ft | 507 kts | 41° |
| 2026-04-21 00:01 | 36.38089 | -114.83473 | 40851 ft | 507 kts | 41° |
| 2026-04-21 00:01 | 36.43402 | -114.77701 | 40838 ft | 507 kts | 41° |
| 2026-04-21 00:02 | 36.48707 | -114.71933 | 40828 ft | 506 kts | 41° |
| 2026-04-21 00:02 | 36.54004 | -114.66160 | 40823 ft | 506 kts | 41° |
| 2026-04-21 00:03 | 36.59300 | -114.60379 | 40824 ft | 505 kts | 41° |
| 2026-04-21 00:03 | 36.64550 | -114.54636 | 40827 ft | 505 kts | 41° |
| 2026-04-21 00:04 | 36.69828 | -114.48852 | 40837 ft | 505 kts | 41° |
| 2026-04-21 00:04 | 36.75597 | -114.43901 | 40842 ft | 505 kts | 31° |
| 2026-04-21 00:05 | 36.81566 | -114.39259 | 40842 ft | 505 kts | 31° |
| 2026-04-21 00:05 | 36.87507 | -114.34573 | 40848 ft | 504 kts | 31° |
| 2026-04-21 00:06 | 36.93449 | -114.29912 | 40853 ft | 503 kts | 31° |
| 2026-04-21 00:06 | 36.99377 | -114.25234 | 40859 ft | 503 kts | 31° |
| 2026-04-21 00:07 | 37.05297 | -114.20563 | 40870 ft | 502 kts | 31° |
| 2026-04-21 00:07 | 37.11165 | -114.15920 | 40876 ft | 502 kts | 31° |
| 2026-04-21 00:08 | 37.17066 | -114.11245 | 40891 ft | 501 kts | 31° |
| 2026-04-21 00:08 | 37.22964 | -114.06562 | 40897 ft | 501 kts | 31° |
| 2026-04-21 00:09 | 37.28850 | -114.01880 | 40908 ft | 500 kts | 31° |
| 2026-04-21 00:09 | 37.34726 | -113.97197 | 40912 ft | 500 kts | 31° |
| 2026-04-21 00:10 | 37.40566 | -113.92535 | 40919 ft | 498 kts | 31° |
| 2026-04-21 00:10 | 37.46405 | -113.87863 | 40925 ft | 496 kts | 31° |
| 2026-04-21 00:11 | 37.52229 | -113.83196 | 40928 ft | 496 kts | 31° |
| 2026-04-21 00:11 | 37.58046 | -113.78526 | 40929 ft | 495 kts | 31° |
| 2026-04-21 00:12 | 37.63856 | -113.73852 | 40931 ft | 495 kts | 31° |
| 2026-04-21 00:12 | 37.69669 | -113.69167 | 40933 ft | 494 kts | 31° |
| 2026-04-21 00:13 | 37.75426 | -113.64519 | 40944 ft | 495 kts | 31° |
| 2026-04-21 00:13 | 37.81218 | -113.59832 | 40934 ft | 494 kts | 31° |
| 2026-04-21 00:14 | 37.87016 | -113.55134 | 40942 ft | 494 kts | 31° |
| 2026-04-21 00:14 | 37.92796 | -113.50419 | 40933 ft | 494 kts | 35° |
| 2026-04-21 00:15 | 37.98007 | -113.44728 | 40935 ft | 495 kts | 41° |
| 2026-04-21 00:15 | 38.03135 | -113.38890 | 40929 ft | 495 kts | 40° |
| 2026-04-21 00:16 | 38.08264 | -113.33082 | 40928 ft | 494 kts | 40° |
| 2026-04-21 00:16 | 38.13378 | -113.27249 | 40925 ft | 494 kts | 40° |
| 2026-04-21 00:17 | 38.18496 | -113.21419 | 40953 ft | 494 kts | 40° |
| 2026-04-21 00:17 | 38.23611 | -113.15571 | 40988 ft | 493 kts | 40° |
| 2026-04-21 00:18 | 38.28678 | -113.09771 | 41007 ft | 493 kts | 40° |
| 2026-04-21 00:18 | 38.33768 | -113.03942 | 41031 ft | 492 kts | 38° |
| 2026-04-21 00:18 | 38.36568 | -113.01449 | 41074 ft | 487 kts | 25° |
| 2026-04-21 00:19 | 38.39656 | -112.99733 | 41065 ft | 484 kts | 16° |
| 2026-04-21 00:19 | 38.46034 | -112.96942 | 41060 ft | 484 kts | 17° |
| 2026-04-21 00:20 | 38.52415 | -112.94143 | 41041 ft | 484 kts | 17° |
| 2026-04-21 00:20 | 38.58749 | -112.91350 | 40767 ft | 486 kts | 17° |
| 2026-04-21 00:20 | 38.61953 | -112.89943 | 40479 ft | 487 kts | 17° |
| 2026-04-21 00:21 | 38.65160 | -112.88528 | 40261 ft | 486 kts | 17° |
| 2026-04-21 00:21 | 38.68358 | -112.87114 | 40039 ft | 485 kts | 17° |
| 2026-04-21 00:21 | 38.71551 | -112.85702 | 39846 ft | 484 kts | 17° |
| 2026-04-21 00:21 | 38.74733 | -112.84296 | 39648 ft | 483 kts | 17° |
| 2026-04-21 00:22 | 38.77911 | -112.82888 | 39461 ft | 482 kts | 17° |
| 2026-04-21 00:22 | 38.81081 | -112.81482 | 39284 ft | 481 kts | 18° |
| 2026-04-21 00:22 | 38.84248 | -112.80078 | 39105 ft | 480 kts | 18° |
| 2026-04-21 00:22 | 38.87362 | -112.78696 | 38934 ft | 479 kts | 18° |
| 2026-04-21 00:23 | 38.90513 | -112.77295 | 38773 ft | 479 kts | 18° |
| 2026-04-21 00:23 | 38.96765 | -112.74511 | 38589 ft | 473 kts | 18° |
| 2026-04-21 00:23 | 38.99868 | -112.73129 | 38423 ft | 471 kts | 18° |
| 2026-04-21 00:24 | 39.02964 | -112.71747 | 38248 ft | 470 kts | 18° |
| 2026-04-21 00:24 | 39.06054 | -112.70367 | 38097 ft | 469 kts | 18° |
| 2026-04-21 00:24 | 39.09131 | -112.68992 | 37900 ft | 468 kts | 18° |
| 2026-04-21 00:24 | 39.12197 | -112.67621 | 37639 ft | 463 kts | 18° |
| 2026-04-21 00:25 | 39.15234 | -112.66261 | 37021 ft | 463 kts | 18° |
| 2026-04-21 00:25 | 39.18271 | -112.64898 | 36592 ft | 460 kts | 17° |
| 2026-04-21 00:25 | 39.21280 | -112.63549 | 36134 ft | 457 kts | 17° |
| 2026-04-21 00:25 | 39.24272 | -112.62206 | 35716 ft | 453 kts | 17° |
| 2026-04-21 00:26 | 39.27251 | -112.60866 | 35272 ft | 451 kts | 17° |
| 2026-04-21 00:26 | 39.30204 | -112.59540 | 34860 ft | 448 kts | 17° |
| 2026-04-21 00:26 | 39.33135 | -112.58219 | 34442 ft | 445 kts | 17° |
| 2026-04-21 00:26 | 39.35067 | -112.57347 | 34158 ft | 443 kts | 17° |
| 2026-04-21 00:27 | 39.37974 | -112.56037 | 33687 ft | 441 kts | 17° |
| 2026-04-21 00:27 | 39.40860 | -112.54736 | 33162 ft | 439 kts | 17° |
| 2026-04-21 00:27 | 39.43734 | -112.53438 | 32647 ft | 437 kts | 17° |
| 2026-04-21 00:27 | 39.46601 | -112.52141 | 32154 ft | 435 kts | 17° |
| 2026-04-21 00:28 | 39.49452 | -112.50851 | 31652 ft | 433 kts | 17° |
| 2026-04-21 00:28 | 39.53210 | -112.49149 | 31009 ft | 431 kts | 17° |
| 2026-04-21 00:28 | 39.55120 | -112.48283 | 30694 ft | 429 kts | 17° |
| 2026-04-21 00:28 | 39.57907 | -112.47019 | 30223 ft | 427 kts | 17° |
| 2026-04-21 00:29 | 39.60710 | -112.45746 | 29710 ft | 425 kts | 17° |
| 2026-04-21 00:29 | 39.63500 | -112.44478 | 29219 ft | 422 kts | 17° |
| 2026-04-21 00:29 | 39.66262 | -112.43223 | 28711 ft | 420 kts | 17° |
| 2026-04-21 00:29 | 39.69007 | -112.41973 | 28244 ft | 417 kts | 17° |
| 2026-04-21 00:30 | 39.71731 | -112.40731 | 27768 ft | 414 kts | 17° |
| 2026-04-21 00:30 | 39.74444 | -112.39495 | 27296 ft | 411 kts | 17° |
| 2026-04-21 00:30 | 39.77141 | -112.38264 | 26840 ft | 409 kts | 17° |
| 2026-04-21 00:30 | 39.79816 | -112.37042 | 26391 ft | 406 kts | 17° |
| 2026-04-21 00:31 | 39.82476 | -112.35826 | 25948 ft | 404 kts | 17° |
| 2026-04-21 00:31 | 39.85119 | -112.34617 | 25499 ft | 402 kts | 17° |
| 2026-04-21 00:31 | 39.87752 | -112.33412 | 25080 ft | 400 kts | 17° |
| 2026-04-21 00:31 | 39.90379 | -112.32208 | 24651 ft | 398 kts | 17° |
| 2026-04-21 00:32 | 39.92986 | -112.31013 | 24239 ft | 395 kts | 17° |
| 2026-04-21 00:32 | 39.95545 | -112.29838 | 23834 ft | 393 kts | 17° |
| 2026-04-21 00:32 | 39.98117 | -112.28657 | 23388 ft | 391 kts | 17° |
| 2026-04-21 00:32 | 40.00682 | -112.27478 | 22882 ft | 389 kts | 17° |
| 2026-04-21 00:33 | 40.03230 | -112.26306 | 22393 ft | 387 kts | 17° |
| 2026-04-21 00:33 | 40.05793 | -112.25326 | 21881 ft | 382 kts | 10° |
| 2026-04-21 00:33 | 40.08371 | -112.24478 | 21370 ft | 381 kts | 13° |
| 2026-04-21 00:33 | 40.10909 | -112.23565 | 20909 ft | 379 kts | 13° |
| 2026-04-21 00:34 | 40.13459 | -112.22687 | 20451 ft | 376 kts | 12° |
| 2026-04-21 00:34 | 40.15989 | -112.21851 | 19980 ft | 374 kts | 12° |
| 2026-04-21 00:34 | 40.18510 | -112.21005 | 19532 ft | 372 kts | 13° |
| 2026-04-21 00:34 | 40.21013 | -112.20148 | 19079 ft | 370 kts | 13° |
| 2026-04-21 00:35 | 40.23502 | -112.19297 | 18629 ft | 369 kts | 13° |
| 2026-04-21 00:35 | 40.25953 | -112.18466 | 18196 ft | 367 kts | 13° |
| 2026-04-21 00:35 | 40.28430 | -112.17626 | 17694 ft | 366 kts | 13° |
| 2026-04-21 00:35 | 40.30895 | -112.16785 | 17213 ft | 364 kts | 13° |
| 2026-04-21 00:36 | 40.33334 | -112.15953 | 16728 ft | 362 kts | 13° |
| 2026-04-21 00:36 | 40.35761 | -112.15125 | 16309 ft | 359 kts | 13° |
| 2026-04-21 00:36 | 40.38187 | -112.14299 | 15740 ft | 359 kts | 13° |
| 2026-04-21 00:36 | 40.40588 | -112.13478 | 15276 ft | 355 kts | 13° |
| 2026-04-21 00:37 | 40.42976 | -112.12663 | 14810 ft | 353 kts | 13° |
| 2026-04-21 00:37 | 40.45308 | -112.11864 | 14419 ft | 349 kts | 13° |
| 2026-04-21 00:37 | 40.47654 | -112.11062 | 13966 ft | 348 kts | 13° |
| 2026-04-21 00:37 | 40.49991 | -112.10262 | 13508 ft | 346 kts | 13° |
| 2026-04-21 00:38 | 40.52307 | -112.09467 | 13038 ft | 343 kts | 13° |
| 2026-04-21 00:38 | 40.54606 | -112.08679 | 12739 ft | 334 kts | 13° |
| 2026-04-21 00:38 | 40.56800 | -112.07925 | 12716 ft | 317 kts | 13° |
| 2026-04-21 00:38 | 40.58878 | -112.07210 | 12666 ft | 301 kts | 13° |